Terminal Aerodrome Forecast
Issued by NWS Upton, NY

Home | Current Version | Previous Version | Text Only | Print | Product List | Glossary On
Versions: 1 2 3 4 5 6 7 8 9 10 11 12 13 14 15 16 17 18 19 20 21 22 23 24 25 26 27 28 29
338
FTUS41 KOKX 232221 AAB
TAFJFK
TAF AMD
KJFK 232221Z 2322/2424 30010KT P6SM FEW250
     FM240000 30007KT P6SM FEW250
     FM240300 VRB05KT P6SM FEW250
     FM240500 20007KT P6SM SCT120 BKN200
     FM241400 20013KT P6SM OVC080 PROB30 2416/2418 6SM -RAPL BKN050
     FM241800 20013KT P6SM BKN040 WS020/22045KT=

USA.gov is the U.S. government's official web portal to all federal, state and local government web resources and services.